This is the latest recevied weather packets stored in our database for station/object WD9U. If no packets are shown the sender has not sent any weather packets the latest 10 day(s).
| Time | Temp. | Humidity | Pressure | Rain* | Wind** | Luminosity | Snow |
|---|---|---|---|---|---|---|---|
| 1777947194 | 7.22° C | 43% | 1003.4 hPa | 0 mm | - | 0 W/m² | - |
| 1777946834 | 7.22° C | 43% | 1003.3 hPa | 0 mm | - | 0 W/m² | - |
| 1777946717 | 7.22° C | 44% | 1003.3 hPa | 0 mm | - | 0 W/m² | - |
| 1777946474 | 7.22° C | 44% | 1003.3 hPa | 0 mm | - | 0 W/m² | - |
| 1777946113 | 7.22° C | 42% | 1003.3 hPa | 0 mm | - | 0 W/m² | - |
| 1777945753 | 7.22° C | 42% | 1003.1 hPa | 0 mm | - | 0 W/m² | - |
| 1777945516 | 7.22° C | 42% | 1003.1 hPa | 0 mm | - | 0 W/m² | - |
| 1777945393 | 7.22° C | 42% | 1003 hPa | 0 mm | - | 0 W/m² | - |
| 1777945033 | 7.22° C | 43% | 1003.1 hPa | 0 mm | - | 0 W/m² | - |
| 1777944673 | 7.22° C | 44% | 1003 hPa | 0 mm | - | 0 W/m² | - |
| 1777944313 | 7.22° C | 44% | 1003.1 hPa | 0 mm | - | 2 W/m² | - |
| 1777943953 | 7.78° C | 42% | 1003 hPa | 0 mm | - | 3 W/m² | - |
| 1777943593 | 7.78° C | 46% | 1002.8 hPa | 0 mm | - | 4 W/m² | - |
| 1777943233 | 7.78° C | 46% | 1002.6 hPa | 0 mm | - | 12 W/m² | - |
| 1777943116 | 7.78° C | 46% | 1002.8 hPa | 0 mm | - | 15 W/m² | - |
| 1777942873 | 7.78° C | 45% | 1002.7 hPa | 0 mm | - | 10 W/m² | - |
| 1777942513 | 10.56° C | 46% | 1063.7 hPa | 0 mm | - | 10 W/m² | - |
| 1777942153 | 8.33° C | 48% | 1002.5 hPa | 0 mm | - | 15 W/m² | - |
| 1777941916 | 8.33° C | 46% | 1002.5 hPa | 0 mm | - | 22 W/m² | - |
| 1777941793 | 5.56° C | 47% | - | 0 mm | - | - | - |
| 1777941433 | 8.33° C | 48% | 1036.9 hPa | 0 mm | - | 16 W/m² | - |
| 1777941072 | 9.44° C | 47% | 1004.1 hPa | 0 mm | - | 18 W/m² | - |
| 1777940711 | 11.67° C | 48% | - | 0 mm | - | - | - |
| 1777940351 | 7.22° C | 46% | 1002.2 hPa | 0 mm | - | 43 W/m² | - |
| 1777939991 | 8.89° C | 45% | 1002 hPa | 0 mm | - | 66 W/m² | - |
* Rain latest hour (hover to see other rain measurements)
** Current wind speed in m/s (hover to see current wind gust speed)